Zim Alabama — V7VD5 — position and weather

sailwx.info

Track history (hours):
 
Tides and Currents Weather Stations Pressure Air Temp Water Temp Dewpoint Dewpoint Depression Visibility Wind Speed Wind Dir Waves Ship Positions

Zim Alabama

Last reported at 2018-Aug-12 02:06 UTC. Time now 2018-Aug-19 23:13 UTC.
Position N 31°59' W 080°46'.

Length 261 m; draft 11.4 m.

Type: Ship (hazmat cat A). MMSI: 538004094.

Date/timePositionNaut miles runAvg speedWind from/ knotsBaromVisibWave heightAir tempDewpointWater temp
2018-Aug-12 02:06N 31°59' W 080°46'114.1
2018-Aug-12 02:00N 31°60' W 080°47'712.0
2018-Aug-12 01:28N 32°02' W 080°55'510.9
2018-Aug-12 01:00N 32°05' W 080°59'4 7.5
2018-Aug-12 00:30N 32°05' W 081°04'3 5.6
2018-Aug-12 00:00N 32°06' W 081°07'2 3.8
2018-Aug-11 23:28N 32°08' W 081°08'0 0.0
2018-Aug-11 22:58N 32°08' W 081°08'0 0.0
2018-Aug-11 22:28N 32°08' W 081°08'0 0.0
2018-Aug-11 21:52N 32°08' W 081°08'0 0.0
2018-Aug-11 21:28N 32°08' W 081°08'0 0.0
2018-Aug-11 20:58N 32°08' W 081°08'0 0.0
2018-Aug-11 20:22N 32°08' W 081°08'0 0.0
2018-Aug-11 19:46N 32°08' W 081°08'0 0.0
2018-Aug-11 19:28N 32°08' W 081°08'0 0.0
2018-Aug-11 18:58N 32°08' W 081°08'0 0.0
2018-Aug-11 18:28N 32°08' W 081°08'0 0.0
2018-Aug-11 17:58N 32°08' W 081°08'0 0.0
2018-Aug-11 17:28N 32°08' W 081°08'0 0.0
2018-Aug-11 16:58N 32°08' W 081°08'0 0.0
2018-Aug-11 16:28N 32°08' W 081°08'0 0.0
2018-Aug-11 15:58N 32°08' W 081°08'0 0.0
2018-Aug-11 15:28N 32°08' W 081°08'0 0.0
2018-Aug-11 14:40N 32°08' W 081°08'0 0.0
2018-Aug-11 14:28N 32°08' W 081°08'0 0.0
2018-Aug-11 13:58N 32°08' W 081°08'0 0.0
2018-Aug-11 13:28N 32°08' W 081°08'0 0.0
2018-Aug-11 12:58N 32°08' W 081°08'0 0.0
2018-Aug-11 12:28N 32°08' W 081°08'0 0.0
2018-Aug-11 11:52N 32°08' W 081°08'0 0.0
2018-Aug-11 11:28N 32°08' W 081°08'0 0.0
2018-Aug-11 10:58N 32°08' W 081°08'0 0.0
2018-Aug-11 10:28N 32°08' W 081°08'0 0.0
2018-Aug-11 09:58N 32°08' W 081°08'0 0.0
2018-Aug-11 09:30N 32°08' W 081°08'0 0.0
2018-Aug-11 08:58N 32°08' W 081°08'0 0.8
2018-Aug-11 08:30N 32°08' W 081°08'2 3.5
2018-Aug-11 08:00N 32°06' W 081°07'2 4.8
2018-Aug-11 07:30N 32°05' W 081°05'2 4.7
2018-Aug-11 07:00N 32°05' W 081°02'3 6.0
2018-Aug-11 06:30N 32°05' W 080°59'5 9.9
2018-Aug-11 06:00N 32°02' W 080°54'510.7
2018-Aug-11 05:30N 32°00' W 080°48'713.9
2018-Aug-11 05:00N 31°57' W 080°41'11 2.3
2018-Aug-11 00:13N 31°57' W 080°27'0 0.5
2018-Aug-10 23:55N 31°57' W 080°28'2 4.8
2018-Aug-10 23:29N 31°57' W 080°25'24711.4
2018-Aug-10 01:54N 34°16' W 076°22'613.7
2018-Aug-10 01:26N 34°21' W 076°16'613.7
2018-Aug-10 01:01N 34°24' W 076°10'1213.9
2018-Aug-10 00:08N 34°33' W 075°59'317.4
2018-Aug-09 23:56N 34°35' W 075°56'142 5.3
2018-Aug-08 21:04N 36°56' W 076°20'0 1.1
2018-Aug-08 21:00N 36°56' W 076°20'192 6.4
2018-Aug-07 15:05N 39°29' W 073°53'114.1
2018-Aug-07 15:00N 39°30' W 073°53'913.9
2018-Aug-07 14:21N 39°39' W 073°52'513.9
2018-Aug-07 13:59N 39°44' W 073°52'713.8
2018-Aug-07 13:30N 39°50' W 073°52'713.8
2018-Aug-07 13:00N 39°57' W 073°51'3411.8
2018-Aug-07 10:06N 40°31' W 073°59'613.2
2018-Aug-07 09:39N 40°36' W 074°03'211.3
2018-Aug-07 09:30N 40°38' W 074°03'3 6.3
2018-Aug-07 09:00N 40°39' W 074°07'2 3.6
2018-Aug-07 08:30N 40°40' W 074°08'0 0.1
2018-Aug-07 07:51N 40°40' W 074°08'0 0.0
2018-Aug-07 07:28N 40°40' W 074°08'0 0.0
2018-Aug-07 06:15N 40°40' W 074°08'0 0.0
2018-Aug-07 05:51N 40°40' W 074°08'0 0.0
2018-Aug-07 05:24N 40°40' W 074°08'0 0.0
2018-Aug-07 04:45N 40°40' W 074°08'0 0.0
2018-Aug-07 04:27N 40°40' W 074°08'0 0.0
2018-Aug-07 03:57N 40°40' W 074°08'0 0.0
2018-Aug-06 09:49N 40°40' W 074°08'0 0.7
2018-Aug-06 09:28N 40°40' W 074°08'2 3.1
2018-Aug-06 08:54N 40°39' W 074°07'3 6.4
2018-Aug-06 08:30N 40°39' W 074°03'18 9.1
2018-Aug-06 06:35N 40°27' W 073°46'1 8.1
2018-Aug-06 06:30N 40°27' W 073°45'3 6.9
2018-Aug-06 06:00N 40°27' W 073°41'8010.0
2018-Aug-05 22:00N 40°31' W 071°56'510.0
2018-Aug-05 21:30N 40°31' W 071°50'510.0
2018-Aug-05 21:00N 40°32' W 071°43'  
Track history (hours):
 
Tides and Currents Weather Stations Pressure Air Temp Water Temp Dewpoint Dewpoint Depression Visibility Wind Speed Wind Dir Waves Ship Positions

Zim Alabama

Last reported at 2018-Aug-12 02:06 UTC. Time now 2018-Aug-19 23:13 UTC.
Position N 31°59' W 080°46'.

Length 261 m; draft 11.4 m.

Type: Ship (hazmat cat A). MMSI: 538004094.

Date/timePositionNaut miles runAvg speedWind from/ knotsBaromVisibWave heightAir tempDewpointWater temp
2018-Aug-12 02:06N 31°59' W 080°46'114.1
2018-Aug-12 02:00N 31°60' W 080°47'712.0
2018-Aug-12 01:28N 32°02' W 080°55'510.9
2018-Aug-12 01:00N 32°05' W 080°59'4 7.5
2018-Aug-12 00:30N 32°05' W 081°04'3 5.6
2018-Aug-12 00:00N 32°06' W 081°07'2 3.8
2018-Aug-11 23:28N 32°08' W 081°08'0 0.0
2018-Aug-11 22:58N 32°08' W 081°08'0 0.0
2018-Aug-11 22:28N 32°08' W 081°08'0 0.0
2018-Aug-11 21:52N 32°08' W 081°08'0 0.0
2018-Aug-11 21:28N 32°08' W 081°08'0 0.0
2018-Aug-11 20:58N 32°08' W 081°08'0 0.0
2018-Aug-11 20:22N 32°08' W 081°08'0 0.0
2018-Aug-11 19:46N 32°08' W 081°08'0 0.0
2018-Aug-11 19:28N 32°08' W 081°08'0 0.0
2018-Aug-11 18:58N 32°08' W 081°08'0 0.0
2018-Aug-11 18:28N 32°08' W 081°08'0 0.0
2018-Aug-11 17:58N 32°08' W 081°08'0 0.0
2018-Aug-11 17:28N 32°08' W 081°08'0 0.0
2018-Aug-11 16:58N 32°08' W 081°08'0 0.0
2018-Aug-11 16:28N 32°08' W 081°08'0 0.0
2018-Aug-11 15:58N 32°08' W 081°08'0 0.0
2018-Aug-11 15:28N 32°08' W 081°08'0 0.0
2018-Aug-11 14:40N 32°08' W 081°08'0 0.0
2018-Aug-11 14:28N 32°08' W 081°08'0 0.0
2018-Aug-11 13:58N 32°08' W 081°08'0 0.0
2018-Aug-11 13:28N 32°08' W 081°08'0 0.0
2018-Aug-11 12:58N 32°08' W 081°08'0 0.0
2018-Aug-11 12:28N 32°08' W 081°08'0 0.0
2018-Aug-11 11:52N 32°08' W 081°08'0 0.0
2018-Aug-11 11:28N 32°08' W 081°08'0 0.0
2018-Aug-11 10:58N 32°08' W 081°08'0 0.0
2018-Aug-11 10:28N 32°08' W 081°08'0 0.0
2018-Aug-11 09:58N 32°08' W 081°08'0 0.0
2018-Aug-11 09:30N 32°08' W 081°08'0 0.0
2018-Aug-11 08:58N 32°08' W 081°08'0 0.8
2018-Aug-11 08:30N 32°08' W 081°08'2 3.5
2018-Aug-11 08:00N 32°06' W 081°07'2 4.8
2018-Aug-11 07:30N 32°05' W 081°05'2 4.7
2018-Aug-11 07:00N 32°05' W 081°02'3 6.0
2018-Aug-11 06:30N 32°05' W 080°59'5 9.9
2018-Aug-11 06:00N 32°02' W 080°54'510.7
2018-Aug-11 05:30N 32°00' W 080°48'713.9
2018-Aug-11 05:00N 31°57' W 080°41'11 2.3
2018-Aug-11 00:13N 31°57' W 080°27'0 0.5
2018-Aug-10 23:55N 31°57' W 080°28'2 4.8
2018-Aug-10 23:29N 31°57' W 080°25'24711.4
2018-Aug-10 01:54N 34°16' W 076°22'613.7
2018-Aug-10 01:26N 34°21' W 076°16'613.7
2018-Aug-10 01:01N 34°24' W 076°10'1213.9
2018-Aug-10 00:08N 34°33' W 075°59'317.4
2018-Aug-09 23:56N 34°35' W 075°56'142 5.3
2018-Aug-08 21:04N 36°56' W 076°20'0 1.1
2018-Aug-08 21:00N 36°56' W 076°20'192 6.4
2018-Aug-07 15:05N 39°29' W 073°53'114.1
2018-Aug-07 15:00N 39°30' W 073°53'913.9
2018-Aug-07 14:21N 39°39' W 073°52'513.9
2018-Aug-07 13:59N 39°44' W 073°52'713.8
2018-Aug-07 13:30N 39°50' W 073°52'713.8
2018-Aug-07 13:00N 39°57' W 073°51'3411.8
2018-Aug-07 10:06N 40°31' W 073°59'613.2
2018-Aug-07 09:39N 40°36' W 074°03'211.3
2018-Aug-07 09:30N 40°38' W 074°03'3 6.3
2018-Aug-07 09:00N 40°39' W 074°07'2 3.6
2018-Aug-07 08:30N 40°40' W 074°08'0 0.1
2018-Aug-07 07:51N 40°40' W 074°08'0 0.0
2018-Aug-07 07:28N 40°40' W 074°08'0 0.0
2018-Aug-07 06:15N 40°40' W 074°08'0 0.0
2018-Aug-07 05:51N 40°40' W 074°08'0 0.0
2018-Aug-07 05:24N 40°40' W 074°08'0 0.0
2018-Aug-07 04:45N 40°40' W 074°08'0 0.0
2018-Aug-07 04:27N 40°40' W 074°08'0 0.0
2018-Aug-07 03:57N 40°40' W 074°08'0 0.0
2018-Aug-06 09:49N 40°40' W 074°08'0 0.7
2018-Aug-06 09:28N 40°40' W 074°08'2 3.1
2018-Aug-06 08:54N 40°39' W 074°07'3 6.4
2018-Aug-06 08:30N 40°39' W 074°03'18 9.1
2018-Aug-06 06:35N 40°27' W 073°46'1 8.1
2018-Aug-06 06:30N 40°27' W 073°45'3 6.9
2018-Aug-06 06:00N 40°27' W 073°41'8010.0
2018-Aug-05 22:00N 40°31' W 071°56'510.0
2018-Aug-05 21:30N 40°31' W 071°50'510.0
2018-Aug-05 21:00N 40°32' W 071°43'  

Dump ship's entire track history